DAL2979 KMKE-KMSP
Flight info
| Callsign | DAL2979 |
|---|---|
| Flight time | 0h 52m |
| Altitude | 32000 |
| Route | HAWKN ROBBY KBULL KKILR4 |
| Aircraft | A321/M-SDE3FGHIRWY/LB1 |
Departure
| Time | 2026-05-05 01:56 |
|---|---|
| Airport | General Mitchell International Airport (KMKE) |
Arrival
| Time | 2026-05-05 02:49 |
|---|---|
| Airport | Minneapolis–Saint Paul International Airport / Wold–Chamberlain Field (KMSP) |
| Time | Latitude | Longitude | Altitude | Speed | Heading |
|---|---|---|---|---|---|
| 2026-05-05 01:05 | 42.94848 | -87.89922 | 682 ft | 0 kts | 99° |
| 2026-05-05 01:31 | 42.94850 | -87.89933 | 681 ft | 4 kts | 99° |
| 2026-05-05 01:32 | 42.94854 | -87.89970 | 685 ft | 4 kts | 99° |
| 2026-05-05 01:32 | 42.94859 | -87.90004 | 684 ft | 2 kts | 99° |
| 2026-05-05 01:32 | 42.94859 | -87.90007 | 684 ft | 0 kts | 99° |
| 2026-05-05 01:41 | 42.94868 | -87.89988 | 683 ft | 7 kts | 44° |
| 2026-05-05 01:41 | 42.94908 | -87.89960 | 685 ft | 5 kts | 19° |
| 2026-05-05 01:41 | 42.94920 | -87.89955 | 684 ft | 0 kts | 19° |
| 2026-05-05 01:46 | 42.94924 | -87.89953 | 684 ft | 3 kts | 19° |
| 2026-05-05 01:46 | 42.94963 | -87.89916 | 684 ft | 10 kts | 54° |
| 2026-05-05 01:46 | 42.94986 | -87.89840 | 688 ft | 7 kts | 73° |
| 2026-05-05 01:46 | 42.94984 | -87.89778 | 688 ft | 6 kts | 98° |
| 2026-05-05 01:47 | 42.94977 | -87.89712 | 682 ft | 11 kts | 98° |
| 2026-05-05 01:47 | 42.94967 | -87.89624 | 688 ft | 8 kts | 117° |
| 2026-05-05 01:47 | 42.94922 | -87.89597 | 685 ft | 7 kts | 183° |
| 2026-05-05 01:47 | 42.94849 | -87.89608 | 685 ft | 19 kts | 187° |
| 2026-05-05 01:48 | 42.94714 | -87.89632 | 685 ft | 19 kts | 187° |
| 2026-05-05 01:48 | 42.94588 | -87.89654 | 685 ft | 17 kts | 187° |
| 2026-05-05 01:48 | 42.94475 | -87.89673 | 684 ft | 16 kts | 187° |
| 2026-05-05 01:48 | 42.94374 | -87.89691 | 684 ft | 14 kts | 187° |
| 2026-05-05 01:49 | 42.94286 | -87.89705 | 683 ft | 12 kts | 187° |
| 2026-05-05 01:49 | 42.94209 | -87.89718 | 682 ft | 9 kts | 189° |
| 2026-05-05 01:49 | 42.94159 | -87.89756 | 684 ft | 8 kts | 219° |
| 2026-05-05 01:49 | 42.94111 | -87.89817 | 683 ft | 9 kts | 224° |
| 2026-05-05 01:50 | 42.94067 | -87.89871 | 683 ft | 8 kts | 212° |
| 2026-05-05 01:50 | 42.94011 | -87.89885 | 684 ft | 9 kts | 181° |
| 2026-05-05 01:50 | 42.93953 | -87.89885 | 686 ft | 9 kts | 179° |
| 2026-05-05 01:50 | 42.93879 | -87.89887 | 685 ft | 11 kts | 181° |
| 2026-05-05 01:51 | 42.93792 | -87.89889 | 685 ft | 14 kts | 181° |
| 2026-05-05 01:51 | 42.93698 | -87.89891 | 687 ft | 12 kts | 181° |
| 2026-05-05 01:51 | 42.93619 | -87.89892 | 685 ft | 10 kts | 181° |
| 2026-05-05 01:51 | 42.93550 | -87.89894 | 684 ft | 10 kts | 181° |
| 2026-05-05 01:52 | 42.93468 | -87.89897 | 682 ft | 13 kts | 182° |
| 2026-05-05 01:52 | 42.93376 | -87.89903 | 684 ft | 14 kts | 183° |
| 2026-05-05 01:52 | 42.93279 | -87.89917 | 686 ft | 12 kts | 187° |
| 2026-05-05 01:52 | 42.93199 | -87.89931 | 688 ft | 13 kts | 187° |
| 2026-05-05 01:53 | 42.93119 | -87.89946 | 682 ft | 10 kts | 186° |
| 2026-05-05 01:53 | 42.93076 | -87.89906 | 681 ft | 7 kts | 109° |
| 2026-05-05 01:53 | 42.93075 | -87.89904 | 688 ft | 0 kts | 107° |
| 2026-05-05 01:54 | 42.93075 | -87.89903 | 688 ft | 1 kts | 106° |
| 2026-05-05 01:54 | 42.93071 | -87.89853 | 688 ft | 6 kts | 95° |
| 2026-05-05 01:55 | 42.93067 | -87.89797 | 684 ft | 8 kts | 95° |
| 2026-05-05 01:55 | 42.93092 | -87.89757 | 684 ft | 5 kts | 5° |
| 2026-05-05 01:55 | 42.93101 | -87.89756 | 684 ft | 5 kts | 7° |
| 2026-05-05 01:55 | 42.93395 | -87.89708 | 688 ft | 84 kts | 7° |
| 2026-05-05 01:56 | 42.94219 | -87.89569 | 688 ft | 152 kts | 7° |
| 2026-05-05 01:56 | 42.95410 | -87.89366 | 931 ft | 185 kts | 4° |
| 2026-05-05 01:56 | 42.96686 | -87.89163 | 1781 ft | 185 kts | 1° |
| 2026-05-05 01:56 | 42.97949 | -87.88957 | 2773 ft | 180 kts | 1° |
| 2026-05-05 01:57 | 42.99214 | -87.88743 | 3482 ft | 188 kts | 1° |
| 2026-05-05 01:57 | 43.00570 | -87.88718 | 3640 ft | 200 kts | 341° |
| 2026-05-05 01:57 | 43.01779 | -87.89671 | 3776 ft | 208 kts | 309° |
| 2026-05-05 01:57 | 43.02719 | -87.91304 | 3923 ft | 230 kts | 309° |
| 2026-05-05 01:58 | 43.03878 | -87.92896 | 4480 ft | 241 kts | 314° |
| 2026-05-05 01:58 | 43.05129 | -87.94457 | 5146 ft | 246 kts | 314° |
| 2026-05-05 01:58 | 43.06406 | -87.96033 | 5857 ft | 249 kts | 312° |
| 2026-05-05 01:58 | 43.07689 | -87.97645 | 6497 ft | 252 kts | 311° |
| 2026-05-05 01:59 | 43.08953 | -87.99260 | 7188 ft | 253 kts | 310° |
| 2026-05-05 01:59 | 43.10229 | -88.00917 | 7919 ft | 253 kts | 309° |
| 2026-05-05 01:59 | 43.11501 | -88.02585 | 8639 ft | 253 kts | 308° |
| 2026-05-05 01:59 | 43.12770 | -88.04263 | 9364 ft | 254 kts | 308° |
| 2026-05-05 02:00 | 43.14039 | -88.05950 | 10034 ft | 255 kts | 308° |
| 2026-05-05 02:00 | 43.15337 | -88.07689 | 10348 ft | 271 kts | 308° |
| 2026-05-05 02:00 | 43.16735 | -88.09577 | 10485 ft | 293 kts | 308° |
| 2026-05-05 02:00 | 43.18235 | -88.11602 | 10614 ft | 313 kts | 308° |
| 2026-05-05 02:01 | 43.19835 | -88.13755 | 10711 ft | 332 kts | 309° |
| 2026-05-05 02:01 | 43.21530 | -88.16025 | 10883 ft | 350 kts | 309° |
| 2026-05-05 02:01 | 43.23288 | -88.18368 | 11097 ft | 363 kts | 309° |
| 2026-05-05 02:01 | 43.25118 | -88.20801 | 11551 ft | 369 kts | 309° |
| 2026-05-05 02:02 | 43.26969 | -88.23259 | 12078 ft | 372 kts | 309° |
| 2026-05-05 02:02 | 43.28828 | -88.25736 | 12621 ft | 374 kts | 309° |
| 2026-05-05 02:02 | 43.30526 | -88.28405 | 13147 ft | 369 kts | 300° |
| 2026-05-05 02:02 | 43.31933 | -88.31351 | 13637 ft | 370 kts | 297° |
| 2026-05-05 02:03 | 43.33332 | -88.34329 | 14111 ft | 372 kts | 297° |
| 2026-05-05 02:03 | 43.34738 | -88.37325 | 14586 ft | 374 kts | 297° |
| 2026-05-05 02:03 | 43.36154 | -88.40340 | 15055 ft | 377 kts | 297° |
| 2026-05-05 02:03 | 43.37580 | -88.43371 | 15502 ft | 379 kts | 297° |
| 2026-05-05 02:04 | 43.39015 | -88.46423 | 15970 ft | 381 kts | 297° |
| 2026-05-05 02:04 | 43.40438 | -88.49453 | 16408 ft | 383 kts | 297° |
| 2026-05-05 02:04 | 43.41909 | -88.52582 | 16865 ft | 386 kts | 297° |
| 2026-05-05 02:04 | 43.43349 | -88.55652 | 17350 ft | 388 kts | 297° |
| 2026-05-05 02:05 | 43.44813 | -88.58777 | 17834 ft | 390 kts | 297° |
| 2026-05-05 02:05 | 43.46281 | -88.61916 | 18237 ft | 392 kts | 297° |
| 2026-05-05 02:05 | 43.47759 | -88.65079 | 18637 ft | 393 kts | 297° |
| 2026-05-05 02:05 | 43.49242 | -88.68252 | 19033 ft | 395 kts | 297° |
| 2026-05-05 02:06 | 43.50731 | -88.71444 | 19412 ft | 397 kts | 297° |
| 2026-05-05 02:06 | 43.52224 | -88.74650 | 19855 ft | 399 kts | 297° |
| 2026-05-05 02:06 | 43.53723 | -88.77872 | 20229 ft | 400 kts | 297° |
| 2026-05-05 02:06 | 43.55228 | -88.81113 | 20602 ft | 402 kts | 297° |
| 2026-05-05 02:07 | 43.56741 | -88.84371 | 20970 ft | 404 kts | 297° |
| 2026-05-05 02:07 | 43.58260 | -88.87636 | 21364 ft | 406 kts | 297° |
| 2026-05-05 02:07 | 43.59785 | -88.90917 | 21729 ft | 407 kts | 297° |
| 2026-05-05 02:07 | 43.61291 | -88.94171 | 22072 ft | 409 kts | 297° |
| 2026-05-05 02:08 | 43.62822 | -88.97487 | 22457 ft | 410 kts | 297° |
| 2026-05-05 02:08 | 43.64355 | -89.00816 | 22812 ft | 412 kts | 297° |
| 2026-05-05 02:08 | 43.65896 | -89.04163 | 23138 ft | 414 kts | 297° |
| 2026-05-05 02:08 | 43.67446 | -89.07528 | 23443 ft | 416 kts | 297° |
| 2026-05-05 02:09 | 43.69002 | -89.10904 | 23731 ft | 418 kts | 297° |
| 2026-05-05 02:09 | 43.70562 | -89.14294 | 24031 ft | 419 kts | 297° |
| 2026-05-05 02:09 | 43.72126 | -89.17702 | 24316 ft | 420 kts | 297° |
| 2026-05-05 02:09 | 43.73695 | -89.21119 | 24635 ft | 420 kts | 297° |
| 2026-05-05 02:10 | 43.75258 | -89.24523 | 25053 ft | 418 kts | 297° |
| 2026-05-05 02:10 | 43.76808 | -89.27907 | 25501 ft | 415 kts | 297° |
| 2026-05-05 02:10 | 43.78324 | -89.31221 | 25917 ft | 413 kts | 297° |
| 2026-05-05 02:10 | 43.79853 | -89.34575 | 26313 ft | 411 kts | 297° |
| 2026-05-05 02:11 | 43.81372 | -89.37916 | 26706 ft | 409 kts | 297° |
| 2026-05-05 02:11 | 43.82885 | -89.41247 | 27100 ft | 408 kts | 296° |
| 2026-05-05 02:11 | 43.84389 | -89.44561 | 27561 ft | 405 kts | 296° |
| 2026-05-05 02:11 | 43.85883 | -89.47853 | 27979 ft | 403 kts | 296° |
| 2026-05-05 02:12 | 43.87369 | -89.51134 | 28375 ft | 401 kts | 296° |
| 2026-05-05 02:12 | 43.90328 | -89.57655 | 29137 ft | 398 kts | 296° |
| 2026-05-05 02:12 | 43.91802 | -89.60904 | 29518 ft | 397 kts | 296° |
| 2026-05-05 02:13 | 43.93246 | -89.64097 | 29844 ft | 396 kts | 296° |
| 2026-05-05 02:13 | 43.94703 | -89.67324 | 30161 ft | 394 kts | 296° |
| 2026-05-05 02:13 | 43.96156 | -89.70547 | 30487 ft | 393 kts | 296° |
| 2026-05-05 02:13 | 43.97601 | -89.73760 | 30796 ft | 392 kts | 296° |
| 2026-05-05 02:14 | 43.99041 | -89.76964 | 31112 ft | 391 kts | 296° |
| 2026-05-05 02:14 | 44.00478 | -89.80163 | 31430 ft | 390 kts | 296° |
| 2026-05-05 02:14 | 44.01911 | -89.83354 | 31589 ft | 389 kts | 296° |
| 2026-05-05 02:15 | 44.04757 | -89.89705 | 31613 ft | 384 kts | 296° |
| 2026-05-05 02:15 | 44.07595 | -89.95995 | 31618 ft | 386 kts | 299° |
| 2026-05-05 02:16 | 44.10987 | -90.01846 | 31623 ft | 388 kts | 302° |
| 2026-05-05 02:16 | 44.14380 | -90.07616 | 31624 ft | 388 kts | 302° |
| 2026-05-05 02:17 | 44.17785 | -90.13440 | 31630 ft | 387 kts | 302° |
| 2026-05-05 02:17 | 44.21183 | -90.19264 | 31633 ft | 387 kts | 302° |
| 2026-05-05 02:18 | 44.24576 | -90.25096 | 31682 ft | 387 kts | 301° |
| 2026-05-05 02:18 | 44.27963 | -90.30931 | 31680 ft | 390 kts | 301° |
| 2026-05-05 02:19 | 44.31414 | -90.36903 | 31657 ft | 400 kts | 301° |
| 2026-05-05 02:19 | 44.34713 | -90.42979 | 31651 ft | 382 kts | 294° |
| 2026-05-05 02:19 | 44.35879 | -90.46233 | 31433 ft | 368 kts | 287° |
| 2026-05-05 02:20 | 44.36814 | -90.49522 | 31172 ft | 362 kts | 287° |
| 2026-05-05 02:20 | 44.37754 | -90.52775 | 30918 ft | 360 kts | 287° |
| 2026-05-05 02:20 | 44.38702 | -90.56006 | 30670 ft | 359 kts | 287° |
| 2026-05-05 02:20 | 44.39653 | -90.59226 | 30418 ft | 358 kts | 287° |
| 2026-05-05 02:21 | 44.40604 | -90.62431 | 30169 ft | 356 kts | 287° |
| 2026-05-05 02:21 | 44.41551 | -90.65625 | 29934 ft | 355 kts | 287° |
| 2026-05-05 02:21 | 44.42495 | -90.68810 | 29728 ft | 353 kts | 287° |
| 2026-05-05 02:21 | 44.43432 | -90.71966 | 29454 ft | 351 kts | 287° |
| 2026-05-05 02:22 | 44.44364 | -90.75109 | 29170 ft | 349 kts | 287° |
| 2026-05-05 02:22 | 44.45278 | -90.78194 | 28897 ft | 347 kts | 287° |
| 2026-05-05 02:22 | 44.46197 | -90.81301 | 28618 ft | 344 kts | 287° |
| 2026-05-05 02:22 | 44.47109 | -90.84390 | 28343 ft | 343 kts | 287° |
| 2026-05-05 02:23 | 44.48017 | -90.87470 | 28070 ft | 341 kts | 287° |
| 2026-05-05 02:23 | 44.48917 | -90.90536 | 27798 ft | 340 kts | 287° |
| 2026-05-05 02:23 | 44.49813 | -90.93596 | 27540 ft | 339 kts | 287° |
| 2026-05-05 02:23 | 44.50704 | -90.96640 | 27272 ft | 337 kts | 287° |
| 2026-05-05 02:24 | 44.51590 | -90.99674 | 27006 ft | 336 kts | 287° |
| 2026-05-05 02:24 | 44.52471 | -91.02697 | 26743 ft | 334 kts | 286° |
| 2026-05-05 02:24 | 44.53349 | -91.05707 | 26481 ft | 333 kts | 287° |
| 2026-05-05 02:24 | 44.54225 | -91.08706 | 26244 ft | 332 kts | 286° |
| 2026-05-05 02:25 | 44.55098 | -91.11697 | 25985 ft | 330 kts | 286° |
| 2026-05-05 02:25 | 44.55966 | -91.14671 | 25739 ft | 329 kts | 286° |
| 2026-05-05 02:25 | 44.56817 | -91.17593 | 25493 ft | 327 kts | 286° |
| 2026-05-05 02:25 | 44.57671 | -91.20538 | 25248 ft | 325 kts | 286° |
| 2026-05-05 02:26 | 44.58520 | -91.23473 | 25007 ft | 324 kts | 286° |
| 2026-05-05 02:26 | 44.59365 | -91.26397 | 24754 ft | 323 kts | 286° |
| 2026-05-05 02:26 | 44.60208 | -91.29314 | 24524 ft | 322 kts | 286° |
| 2026-05-05 02:26 | 44.61046 | -91.32219 | 24327 ft | 321 kts | 286° |
| 2026-05-05 02:27 | 44.61880 | -91.35104 | 24094 ft | 318 kts | 286° |
| 2026-05-05 02:27 | 44.62707 | -91.37969 | 23863 ft | 316 kts | 286° |
| 2026-05-05 02:27 | 44.63530 | -91.40818 | 23634 ft | 314 kts | 286° |
| 2026-05-05 02:27 | 44.64350 | -91.43658 | 23397 ft | 313 kts | 286° |
| 2026-05-05 02:28 | 44.65167 | -91.46492 | 23148 ft | 312 kts | 286° |
| 2026-05-05 02:28 | 44.65970 | -91.49277 | 22874 ft | 311 kts | 286° |
| 2026-05-05 02:28 | 44.66780 | -91.52088 | 22599 ft | 310 kts | 286° |
| 2026-05-05 02:28 | 44.67584 | -91.54891 | 22348 ft | 308 kts | 286° |
| 2026-05-05 02:29 | 44.68380 | -91.57671 | 22078 ft | 306 kts | 286° |
| 2026-05-05 02:29 | 44.69167 | -91.60409 | 21763 ft | 298 kts | 286° |
| 2026-05-05 02:29 | 44.69935 | -91.63083 | 21376 ft | 292 kts | 286° |
| 2026-05-05 02:29 | 44.70687 | -91.65711 | 20980 ft | 288 kts | 286° |
| 2026-05-05 02:30 | 44.71425 | -91.68298 | 20583 ft | 283 kts | 286° |
| 2026-05-05 02:30 | 44.72142 | -91.70815 | 20215 ft | 279 kts | 286° |
| 2026-05-05 02:30 | 44.72858 | -91.73331 | 19809 ft | 276 kts | 286° |
| 2026-05-05 02:30 | 44.73564 | -91.75817 | 19431 ft | 272 kts | 286° |
| 2026-05-05 02:31 | 44.74265 | -91.78279 | 19035 ft | 270 kts | 286° |
| 2026-05-05 02:31 | 44.74958 | -91.80717 | 18645 ft | 268 kts | 286° |
| 2026-05-05 02:31 | 44.75645 | -91.83143 | 18254 ft | 266 kts | 286° |
| 2026-05-05 02:31 | 44.76330 | -91.85559 | 17845 ft | 265 kts | 286° |
| 2026-05-05 02:32 | 44.77010 | -91.87955 | 17573 ft | 265 kts | 286° |
| 2026-05-05 02:32 | 44.77678 | -91.90369 | 17222 ft | 264 kts | 286° |
| 2026-05-05 02:32 | 44.78335 | -91.92781 | 16841 ft | 264 kts | 286° |
| 2026-05-05 02:32 | 44.78987 | -91.95197 | 16457 ft | 264 kts | 286° |
| 2026-05-05 02:33 | 44.79630 | -91.97584 | 16076 ft | 264 kts | 286° |
| 2026-05-05 02:33 | 44.80281 | -92.00002 | 15711 ft | 264 kts | 287° |
| 2026-05-05 02:33 | 44.80936 | -92.02425 | 15331 ft | 265 kts | 287° |
| 2026-05-05 02:33 | 44.81591 | -92.04850 | 14952 ft | 265 kts | 287° |
| 2026-05-05 02:34 | 44.82248 | -92.07279 | 14575 ft | 266 kts | 287° |
| 2026-05-05 02:34 | 44.82902 | -92.09708 | 14190 ft | 265 kts | 287° |
| 2026-05-05 02:34 | 44.83558 | -92.12139 | 13810 ft | 266 kts | 287° |
| 2026-05-05 02:34 | 44.84216 | -92.14581 | 13420 ft | 267 kts | 288° |
| 2026-05-05 02:35 | 44.84874 | -92.17023 | 13010 ft | 266 kts | 287° |
| 2026-05-05 02:35 | 44.85338 | -92.19495 | 12627 ft | 264 kts | 277° |
| 2026-05-05 02:35 | 44.85501 | -92.22061 | 12245 ft | 263 kts | 274° |
| 2026-05-05 02:35 | 44.85652 | -92.24625 | 11856 ft | 262 kts | 275° |
| 2026-05-05 02:36 | 44.85803 | -92.27179 | 11479 ft | 261 kts | 275° |
| 2026-05-05 02:36 | 44.85958 | -92.29731 | 11085 ft | 261 kts | 276° |
| 2026-05-05 02:36 | 44.86115 | -92.32282 | 10704 ft | 261 kts | 276° |
| 2026-05-05 02:36 | 44.86258 | -92.34832 | 10367 ft | 259 kts | 276° |
| 2026-05-05 02:37 | 44.86382 | -92.37329 | 10138 ft | 253 kts | 275° |
| 2026-05-05 02:37 | 44.86495 | -92.39785 | 9902 ft | 250 kts | 275° |
| 2026-05-05 02:37 | 44.86608 | -92.42228 | 9782 ft | 250 kts | 276° |
| 2026-05-05 02:37 | 44.86725 | -92.44666 | 9662 ft | 249 kts | 276° |
| 2026-05-05 02:38 | 44.86822 | -92.47105 | 9530 ft | 250 kts | 271° |
| 2026-05-05 02:38 | 44.86539 | -92.49536 | 9301 ft | 254 kts | 256° |
| 2026-05-05 02:38 | 44.85792 | -92.51815 | 8954 ft | 258 kts | 248° |
| 2026-05-05 02:38 | 44.84976 | -92.54020 | 8593 ft | 257 kts | 248° |
| 2026-05-05 02:39 | 44.84150 | -92.56253 | 8220 ft | 256 kts | 248° |
| 2026-05-05 02:39 | 44.83327 | -92.58475 | 7830 ft | 256 kts | 248° |
| 2026-05-05 02:39 | 44.82506 | -92.60697 | 7462 ft | 255 kts | 248° |
| 2026-05-05 02:39 | 44.81686 | -92.62912 | 7093 ft | 255 kts | 248° |
| 2026-05-05 02:40 | 44.80863 | -92.65124 | 6750 ft | 254 kts | 248° |
| 2026-05-05 02:40 | 44.80041 | -92.67327 | 6375 ft | 254 kts | 248° |
| 2026-05-05 02:40 | 44.79227 | -92.69519 | 6136 ft | 249 kts | 248° |
| 2026-05-05 02:40 | 44.78443 | -92.71629 | 6007 ft | 238 kts | 248° |
| 2026-05-05 02:41 | 44.77684 | -92.73659 | 5801 ft | 231 kts | 248° |
| 2026-05-05 02:41 | 44.76936 | -92.75647 | 5498 ft | 229 kts | 248° |
| 2026-05-05 02:41 | 44.76207 | -92.77606 | 5179 ft | 229 kts | 248° |
| 2026-05-05 02:41 | 44.75476 | -92.79584 | 5004 ft | 228 kts | 248° |
| 2026-05-05 02:42 | 44.74742 | -92.81568 | 5008 ft | 229 kts | 249° |
| 2026-05-05 02:42 | 44.74291 | -92.83659 | 5009 ft | 221 kts | 272° |
| 2026-05-05 02:42 | 44.74499 | -92.85752 | 5015 ft | 216 kts | 287° |
| 2026-05-05 02:42 | 44.74882 | -92.87798 | 5015 ft | 216 kts | 287° |
| 2026-05-05 02:43 | 44.75266 | -92.89845 | 5017 ft | 217 kts | 287° |
| 2026-05-05 02:43 | 44.75649 | -92.91895 | 5020 ft | 216 kts | 287° |
| 2026-05-05 02:43 | 44.76068 | -92.93897 | 5040 ft | 205 kts | 294° |
| 2026-05-05 02:43 | 44.76705 | -92.95636 | 4893 ft | 196 kts | 301° |
| 2026-05-05 02:44 | 44.77396 | -92.97251 | 4670 ft | 195 kts | 302° |
| 2026-05-05 02:44 | 44.78104 | -92.98873 | 4402 ft | 194 kts | 302° |
| 2026-05-05 02:44 | 44.78811 | -93.00492 | 4127 ft | 194 kts | 302° |
| 2026-05-05 02:44 | 44.79515 | -93.02103 | 3873 ft | 193 kts | 302° |
| 2026-05-05 02:45 | 44.80213 | -93.03703 | 3607 ft | 191 kts | 302° |
| 2026-05-05 02:45 | 44.80903 | -93.05286 | 3359 ft | 186 kts | 302° |
| 2026-05-05 02:45 | 44.81564 | -93.06804 | 3099 ft | 177 kts | 303° |
| 2026-05-05 02:45 | 44.82191 | -93.08243 | 2849 ft | 167 kts | 303° |
| 2026-05-05 02:46 | 44.82770 | -93.09574 | 2612 ft | 154 kts | 303° |
| 2026-05-05 02:46 | 44.83317 | -93.10829 | 2437 ft | 148 kts | 303° |
| 2026-05-05 02:46 | 44.83850 | -93.12055 | 2228 ft | 146 kts | 303° |
| 2026-05-05 02:46 | 44.84378 | -93.13270 | 2030 ft | 145 kts | 303° |
| 2026-05-05 02:47 | 44.84905 | -93.14478 | 1815 ft | 145 kts | 303° |
| 2026-05-05 02:47 | 44.85431 | -93.15687 | 1593 ft | 144 kts | 303° |
| 2026-05-05 02:47 | 44.85949 | -93.16873 | 1372 ft | 147 kts | 302° |
| 2026-05-05 02:47 | 44.86480 | -93.18091 | 1204 ft | 146 kts | 302° |
| 2026-05-05 02:48 | 44.87004 | -93.19302 | 1024 ft | 144 kts | 301° |
| 2026-05-05 02:48 | 44.87520 | -93.20507 | 875 ft | 143 kts | 303° |
| 2026-05-05 02:48 | 44.88006 | -93.21629 | 823 ft | 117 kts | 301° |
| 2026-05-05 02:48 | 44.88324 | -93.22362 | 826 ft | 62 kts | 301° |
| 2026-05-05 02:49 | 44.88440 | -93.22629 | 822 ft | 8 kts | 301° |
| 2026-05-05 02:49 | 44.88458 | -93.22671 | 824 ft | 11 kts | 301° |
| 2026-05-05 02:49 | 44.88513 | -93.22754 | 822 ft | 11 kts | 337° |
| 2026-05-05 02:49 | 44.88562 | -93.22741 | 822 ft | 6 kts | 33° |
| 2026-05-05 02:50 | 44.88582 | -93.22706 | 824 ft | 3 kts | 66° |
| 2026-05-05 02:50 | 44.88583 | -93.22679 | 824 ft | 2 kts | 96° |
| 2026-05-05 02:50 | 44.88574 | -93.22647 | 821 ft | 6 kts | 116° |
| 2026-05-05 02:50 | 44.88555 | -93.22600 | 824 ft | 5 kts | 121° |
| 2026-05-05 02:51 | 44.88530 | -93.22541 | 824 ft | 10 kts | 121° |
| 2026-05-05 02:51 | 44.88489 | -93.22448 | 821 ft | 12 kts | 121° |
| 2026-05-05 02:51 | 44.88448 | -93.22353 | 824 ft | 11 kts | 121° |
| 2026-05-05 02:51 | 44.88411 | -93.22269 | 824 ft | 9 kts | 121° |
| 2026-05-05 02:52 | 44.88381 | -93.22200 | 824 ft | 10 kts | 121° |
| 2026-05-05 02:52 | 44.88339 | -93.22104 | 825 ft | 9 kts | 121° |
| 2026-05-05 02:52 | 44.88316 | -93.22048 | 825 ft | 6 kts | 121° |
| 2026-05-05 02:52 | 44.88299 | -93.21965 | 825 ft | 12 kts | 76° |
| 2026-05-05 02:53 | 44.88354 | -93.21882 | 823 ft | 14 kts | 43° |
| 2026-05-05 02:53 | 44.88457 | -93.21738 | 824 ft | 20 kts | 50° |
| 2026-05-05 02:53 | 44.88520 | -93.21611 | 825 ft | 9 kts | 92° |
| 2026-05-05 02:53 | 44.88491 | -93.21548 | 825 ft | 7 kts | 155° |
| 2026-05-05 02:54 | 44.88446 | -93.21550 | 825 ft | 6 kts | 197° |
| 2026-05-05 02:54 | 44.88418 | -93.21563 | 825 ft | 0 kts | 198° |